sensor_id;sensor_type;location;lat;lon;timestamp;P1;durP1;ratioP1;P2;durP2;ratioP2
35612;SDS011;22054;51.646;7.078;2023-01-01T16:38:59;0.20;;;0.20;;
35612;SDS011;22054;51.646;7.078;2023-01-01T16:41:26;0.30;;;0.30;;
35612;SDS011;22054;51.646;7.078;2023-01-01T16:43:54;0.35;;;0.35;;
35612;SDS011;22054;51.646;7.078;2023-01-01T16:46:21;0.30;;;0.30;;
35612;SDS011;22054;51.646;7.078;2023-01-01T16:48:46;0.20;;;0.20;;
35612;SDS011;22054;51.646;7.078;2023-01-01T16:51:17;0.30;;;0.30;;
35612;SDS011;22054;51.646;7.078;2023-01-01T16:53:47;0.30;;;0.30;;
35612;SDS011;22054;51.646;7.078;2023-01-01T16:56:13;0.30;;;0.30;;
35612;SDS011;22054;51.646;7.078;2023-01-01T16:58:42;0.40;;;0.40;;
35612;SDS011;22054;51.646;7.078;2023-01-01T17:01:08;0.30;;;0.30;;
35612;SDS011;22054;51.646;7.078;2023-01-01T17:03:34;0.30;;;0.30;;
35612;SDS011;22054;51.646;7.078;2023-01-01T17:06:07;0.40;;;0.40;;
35612;SDS011;22054;51.646;7.078;2023-01-01T17:08:34;1.40;;;1.40;;
35612;SDS011;22054;51.646;7.078;2023-01-01T17:11:05;1.10;;;1.10;;
35612;SDS011;22054;51.646;7.078;2023-01-01T17:13:36;2.33;;;2.22;;
35612;SDS011;22054;51.646;7.078;2023-01-01T17:16:02;2.53;;;2.42;;
35612;SDS011;22054;51.646;7.078;2023-01-01T17:18:28;2.80;;;2.70;;
35612;SDS011;22054;51.646;7.078;2023-01-01T17:20:54;2.90;;;2.80;;
35612;SDS011;22054;51.646;7.078;2023-01-01T17:23:20;2.80;;;2.70;;
35612;SDS011;22054;51.646;7.078;2023-01-01T17:25:46;2.90;;;2.80;;
35612;SDS011;22054;51.646;7.078;2023-01-01T17:28:11;3.30;;;3.20;;
35612;SDS011;22054;51.646;7.078;2023-01-01T17:30:37;3.03;;;2.92;;
35612;SDS011;22054;51.646;7.078;2023-01-01T17:33:03;2.33;;;2.22;;
35612;SDS011;22054;51.646;7.078;2023-01-01T17:35:29;1.60;;;1.60;;
35612;SDS011;22054;51.646;7.078;2023-01-01T17:37:55;0.88;;;0.88;;
35612;SDS011;22054;51.646;7.078;2023-01-01T17:40:20;0.80;;;0.80;;
35612;SDS011;22054;51.646;7.078;2023-01-01T17:42:46;1.00;;;1.00;;
35612;SDS011;22054;51.646;7.078;2023-01-01T17:45:12;1.60;;;1.60;;
35612;SDS011;22054;51.646;7.078;2023-01-01T17:47:38;1.10;;;1.10;;
35612;SDS011;22054;51.646;7.078;2023-01-01T17:50:03;0.73;;;0.73;;
35612;SDS011;22054;51.646;7.078;2023-01-01T17:52:30;0.40;;;0.40;;
35612;SDS011;22054;51.646;7.078;2023-01-01T17:54:58;0.25;;;0.25;;
35612;SDS011;22054;51.646;7.078;2023-01-01T17:57:24;0.38;;;0.38;;
35612;SDS011;22054;51.646;7.078;2023-01-01T17:59:50;0.30;;;0.30;;
35612;SDS011;22054;51.646;7.078;2023-01-01T18:02:15;0.30;;;0.30;;
35612;SDS011;22054;51.646;7.078;2023-01-01T18:04:41;0.20;;;0.20;;
35612;SDS011;22054;51.646;7.078;2023-01-01T18:07:07;0.30;;;0.30;;
35612;SDS011;22054;51.646;7.078;2023-01-01T18:09:33;0.30;;;0.30;;
35612;SDS011;22054;51.646;7.078;2023-01-01T18:12:02;0.30;;;0.30;;
35612;SDS011;22054;51.646;7.078;2023-01-01T18:14:28;0.43;;;0.43;;
35612;SDS011;22054;51.646;7.078;2023-01-01T18:16:54;0.30;;;0.30;;
35612;SDS011;22054;51.646;7.078;2023-01-01T18:19:20;0.20;;;0.20;;
35612;SDS011;22054;51.646;7.078;2023-01-01T18:21:46;0.30;;;0.30;;
35612;SDS011;22054;51.646;7.078;2023-01-01T18:24:12;0.40;;;0.40;;
35612;SDS011;22054;51.646;7.078;2023-01-01T18:26:39;0.30;;;0.30;;
35612;SDS011;22054;51.646;7.078;2023-01-01T18:29:08;0.20;;;0.20;;
35612;SDS011;22054;51.646;7.078;2023-01-01T18:31:34;0.30;;;0.30;;
35612;SDS011;22054;51.646;7.078;2023-01-01T18:34:03;0.40;;;0.40;;
35612;SDS011;22054;51.646;7.078;2023-01-01T18:36:31;0.25;;;0.25;;
35612;SDS011;22054;51.646;7.078;2023-01-01T18:44:54;0.30;;;0.30;;
35612;SDS011;22054;51.646;7.078;2023-01-01T18:47:26;0.30;;;0.30;;
35612;SDS011;22054;51.646;7.078;2023-01-01T18:49:52;0.20;;;0.20;;
35612;SDS011;22054;51.646;7.078;2023-01-01T18:52:38;0.20;;;0.20;;
35612;SDS011;22054;51.646;7.078;2023-01-01T18:57:33;0.50;;;0.50;;
35612;SDS011;22054;51.646;7.078;2023-01-01T19:00:12;0.55;;;0.55;;
35612;SDS011;22054;51.646;7.078;2023-01-01T19:02:58;0.60;;;0.60;;
35612;SDS011;22054;51.646;7.078;2023-01-01T19:05:27;3.67;;;3.58;;
35612;SDS011;22054;51.646;7.078;2023-01-01T19:10:44;3.22;;;3.13;;
35612;SDS011;22054;51.646;7.078;2023-01-01T19:18:39;3.70;;;3.60;;
35612;SDS011;22054;51.646;7.078;2023-01-01T19:21:30;2.83;;;2.72;;
35612;SDS011;22054;51.646;7.078;2023-01-01T19:23:59;3.65;;;3.55;;
35612;SDS011;22054;51.646;7.078;2023-01-01T19:29:11;2.00;;;1.90;;
35612;SDS011;22054;51.646;7.078;2023-01-01T19:31:49;2.03;;;1.92;;
35612;SDS011;22054;51.646;7.078;2023-01-01T19:34:17;3.55;;;3.45;;
35612;SDS011;22054;51.646;7.078;2023-01-01T19:36:43;3.45;;;3.35;;
35612;SDS011;22054;51.646;7.078;2023-01-01T19:39:13;4.57;;;4.38;;
35612;SDS011;22054;51.646;7.078;2023-01-01T19:44:08;2.65;;;2.55;;
35612;SDS011;22054;51.646;7.078;2023-01-01T19:46:35;3.40;;;3.30;;
35612;SDS011;22054;51.646;7.078;2023-01-01T19:49:00;2.60;;;2.50;;
35612;SDS011;22054;51.646;7.078;2023-01-01T19:52:25;2.33;;;2.22;;
35612;SDS011;22054;51.646;7.078;2023-01-01T19:55:49;2.88;;;2.78;;
35612;SDS011;22054;51.646;7.078;2023-01-01T19:59:13;3.30;;;3.20;;
35612;SDS011;22054;51.646;7.078;2023-01-01T20:02:38;2.50;;;2.40;;
35612;SDS011;22054;51.646;7.078;2023-01-01T20:06:03;2.67;;;2.58;;
35612;SDS011;22054;51.646;7.078;2023-01-01T20:09:28;1.52;;;1.52;;
35612;SDS011;22054;51.646;7.078;2023-01-01T20:12:54;1.38;;;1.38;;
35612;SDS011;22054;51.646;7.078;2023-01-01T20:16:19;1.52;;;1.52;;
35612;SDS011;22054;51.646;7.078;2023-01-01T20:19:44;2.60;;;2.50;;
35612;SDS011;22054;51.646;7.078;2023-01-01T20:23:27;1.40;;;1.40;;
35612;SDS011;22054;51.646;7.078;2023-01-01T20:26:51;1.80;;;1.80;;
35612;SDS011;22054;51.646;7.078;2023-01-01T20:30:38;2.10;;;2.00;;
35612;SDS011;22054;51.646;7.078;2023-01-01T20:34:03;1.85;;;1.83;;
35612;SDS011;22054;51.646;7.078;2023-01-01T20:37:27;2.88;;;2.78;;
35612;SDS011;22054;51.646;7.078;2023-01-01T20:40:54;2.83;;;2.72;;
35612;SDS011;22054;51.646;7.078;2023-01-01T20:44:18;2.38;;;2.28;;
35612;SDS011;22054;51.646;7.078;2023-01-01T20:47:42;1.90;;;1.85;;
35612;SDS011;22054;51.646;7.078;2023-01-01T20:51:07;2.75;;;2.65;;
35612;SDS011;22054;51.646;7.078;2023-01-01T20:54:31;2.33;;;2.22;;
35612;SDS011;22054;51.646;7.078;2023-01-01T20:57:55;1.02;;;1.02;;
35612;SDS011;22054;51.646;7.078;2023-01-01T21:01:20;0.80;;;0.80;;
35612;SDS011;22054;51.646;7.078;2023-01-01T21:04:44;1.02;;;1.02;;
35612;SDS011;22054;51.646;7.078;2023-01-01T21:08:09;0.70;;;0.70;;
35612;SDS011;22054;51.646;7.078;2023-01-01T21:11:34;0.93;;;0.93;;
35612;SDS011;22054;51.646;7.078;2023-01-01T21:18:54;1.00;;;1.00;;
35612;SDS011;22054;51.646;7.078;2023-01-01T21:22:19;1.30;;;1.30;;
35612;SDS011;22054;51.646;7.078;2023-01-01T21:25:46;1.05;;;1.05;;
35612;SDS011;22054;51.646;7.078;2023-01-01T21:29:16;0.90;;;0.90;;
35612;SDS011;22054;51.646;7.078;2023-01-01T21:32:44;1.30;;;1.30;;
35612;SDS011;22054;51.646;7.078;2023-01-01T21:36:13;1.40;;;1.40;;
35612;SDS011;22054;51.646;7.078;2023-01-01T21:44:04;1.40;;;1.40;;
35612;SDS011;22054;51.646;7.078;2023-01-01T21:47:41;0.80;;;0.80;;
35612;SDS011;22054;51.646;7.078;2023-01-01T21:51:18;1.10;;;1.10;;
35612;SDS011;22054;51.646;7.078;2023-01-01T21:54:46;1.05;;;1.05;;
35612;SDS011;22054;51.646;7.078;2023-01-01T21:58:23;0.95;;;0.95;;
35612;SDS011;22054;51.646;7.078;2023-01-01T22:05:27;1.50;;;1.50;;
35612;SDS011;22054;51.646;7.078;2023-01-01T22:08:58;1.90;;;1.80;;
35612;SDS011;22054;51.646;7.078;2023-01-01T22:12:28;1.67;;;1.67;;
35612;SDS011;22054;51.646;7.078;2023-01-01T22:15:54;1.60;;;1.60;;
35612;SDS011;22054;51.646;7.078;2023-01-01T22:19:22;1.92;;;1.88;;
35612;SDS011;22054;51.646;7.078;2023-01-01T22:22:49;2.78;;;2.67;;
35612;SDS011;22054;51.646;7.078;2023-01-01T22:29:44;3.10;;;3.00;;
35612;SDS011;22054;51.646;7.078;2023-01-01T22:33:43;2.70;;;2.60;;
35612;SDS011;22054;51.646;7.078;2023-01-01T22:37:00;3.00;;;2.90;;
35612;SDS011;22054;51.646;7.078;2023-01-01T22:40:30;2.90;;;2.80;;
35612;SDS011;22054;51.646;7.078;2023-01-01T22:43:59;2.90;;;2.80;;
35612;SDS011;22054;51.646;7.078;2023-01-01T22:47:33;2.40;;;2.30;;
35612;SDS011;22054;51.646;7.078;2023-01-01T22:51:06;2.50;;;2.40;;
35612;SDS011;22054;51.646;7.078;2023-01-01T22:54:35;1.67;;;1.67;;
35612;SDS011;22054;51.646;7.078;2023-01-01T22:57:59;2.10;;;2.00;;
35612;SDS011;22054;51.646;7.078;2023-01-01T23:01:23;2.00;;;1.90;;
35612;SDS011;22054;51.646;7.078;2023-01-01T23:04:47;2.20;;;2.10;;
35612;SDS011;22054;51.646;7.078;2023-01-01T23:08:11;2.20;;;2.10;;
35612;SDS011;22054;51.646;7.078;2023-01-01T23:11:36;1.63;;;1.63;;
35612;SDS011;22054;51.646;7.078;2023-01-01T23:15:00;1.80;;;1.80;;
35612;SDS011;22054;51.646;7.078;2023-01-01T23:18:25;1.80;;;1.80;;
35612;SDS011;22054;51.646;7.078;2023-01-01T23:21:50;2.20;;;2.10;;
35612;SDS011;22054;51.646;7.078;2023-01-01T23:25:16;1.20;;;1.20;;
35612;SDS011;22054;51.646;7.078;2023-01-01T23:28:42;1.70;;;1.70;;
35612;SDS011;22054;51.646;7.078;2023-01-01T23:32:06;2.00;;;1.90;;
35612;SDS011;22054;51.646;7.078;2023-01-01T23:35:30;1.77;;;1.77;;
35612;SDS011;22054;51.646;7.078;2023-01-01T23:38:55;1.10;;;1.10;;
35612;SDS011;22054;51.646;7.078;2023-01-01T23:42:19;1.25;;;1.25;;
35612;SDS011;22054;51.646;7.078;2023-01-01T23:45:43;0.90;;;0.90;;
35612;SDS011;22054;51.646;7.078;2023-01-01T23:49:08;1.10;;;1.10;;
35612;SDS011;22054;51.646;7.078;2023-01-01T23:52:33;0.90;;;0.90;;
35612;SDS011;22054;51.646;7.078;2023-01-01T23:55:57;0.80;;;0.80;;
35612;SDS011;22054;51.646;7.078;2023-01-01T23:59:21;1.30;;;1.30;;
